createdAt,value
2018-05-07T00:01:27.929Z,1.50
2018-05-07T00:03:55.917Z,1.30
2018-05-07T00:06:23.328Z,1.80
2018-05-07T00:08:50.845Z,1.70
2018-05-07T00:11:18.224Z,1.93
2018-05-07T00:13:45.549Z,2.67
2018-05-07T00:16:12.911Z,1.70
2018-05-07T00:18:40.235Z,1.80
2018-05-07T00:21:07.627Z,1.50
2018-05-07T00:23:34.998Z,1.90
2018-05-07T00:26:02.340Z,1.80
2018-05-07T00:28:29.704Z,1.83
2018-05-07T00:30:57.628Z,2.10
2018-05-07T00:33:25.482Z,1.73
2018-05-07T00:35:53.702Z,2.17
2018-05-07T00:38:21.056Z,2.23
2018-05-07T00:40:48.388Z,1.77
2018-05-07T00:43:15.744Z,1.90
2018-05-07T00:45:43.068Z,1.60
2018-05-07T00:48:10.427Z,1.70
2018-05-07T00:50:38.163Z,1.85
2018-05-07T00:53:05.526Z,2.30
2018-05-07T00:55:32.863Z,1.80
2018-05-07T00:58:00.227Z,1.70
2018-05-07T01:00:27.990Z,2.43
2018-05-07T01:02:55.407Z,2.37
2018-05-07T01:05:22.914Z,2.37
2018-05-07T01:07:50.241Z,2.03
2018-05-07T01:10:17.813Z,2.00
2018-05-07T01:12:45.234Z,2.83
2018-05-07T01:15:12.542Z,2.70
2018-05-07T01:17:39.875Z,2.10
2018-05-07T01:20:07.231Z,2.20
2018-05-07T01:22:34.557Z,2.47
2018-05-07T01:25:01.948Z,1.80
2018-05-07T01:27:30.165Z,1.97
2018-05-07T01:29:58.249Z,2.20
2018-05-07T01:32:25.618Z,2.10
2018-05-07T01:34:53.050Z,2.00
2018-05-07T01:37:20.408Z,2.00
2018-05-07T01:39:47.732Z,2.40
2018-05-07T01:42:15.105Z,2.00
2018-05-07T01:44:42.436Z,2.23
2018-05-07T01:47:09.793Z,2.70
2018-05-07T01:49:37.125Z,2.20
2018-05-07T01:52:04.481Z,1.57
2018-05-07T01:54:31.806Z,2.20
2018-05-07T01:56:59.607Z,1.70
2018-05-07T01:59:27.145Z,2.33
2018-05-07T02:01:54.849Z,1.70
2018-05-07T02:04:22.184Z,1.50
2018-05-07T02:06:49.508Z,2.30
2018-05-07T02:09:16.864Z,1.90
2018-05-07T02:11:44.210Z,2.33
2018-05-07T02:14:11.567Z,1.80
2018-05-07T02:16:38.901Z,1.70
2018-05-07T02:19:06.496Z,2.10
2018-05-07T02:21:34.143Z,1.90
2018-05-07T02:24:01.654Z,2.17
2018-05-07T02:26:28.984Z,2.13
2018-05-07T02:28:56.341Z,2.03
2018-05-07T02:31:23.774Z,2.30
2018-05-07T02:33:51.958Z,2.50
2018-05-07T02:36:19.301Z,2.53
2018-05-07T02:38:46.665Z,2.63
2018-05-07T02:41:13.999Z,2.33
2018-05-07T02:43:41.361Z,1.90
2018-05-07T02:46:08.741Z,2.27
2018-05-07T02:48:36.618Z,2.57
2018-05-07T02:51:04.048Z,2.67
2018-05-07T02:53:31.525Z,2.43
2018-05-07T02:55:58.877Z,2.30
2018-05-07T02:58:26.221Z,2.27
2018-05-07T03:00:53.578Z,2.10
2018-05-07T03:03:20.905Z,2.27
2018-05-07T03:05:48.256Z,2.33
2018-05-07T03:08:15.596Z,2.23
2018-05-07T03:10:43.199Z,2.83
2018-05-07T03:13:10.525Z,2.20
2018-05-07T03:15:38.130Z,2.27
2018-05-07T03:18:05.963Z,2.60
2018-05-07T03:20:33.386Z,3.20
2018-05-07T03:23:00.722Z,2.20
2018-05-07T03:25:28.082Z,2.23
2018-05-07T03:27:55.416Z,2.20
2018-05-07T03:30:22.801Z,2.17
2018-05-07T03:32:50.134Z,3.20
2018-05-07T03:35:17.459Z,2.50
2018-05-07T03:37:44.814Z,2.90
2018-05-07T03:40:12.142Z,2.40
2018-05-07T03:42:39.511Z,2.40
2018-05-07T03:45:07.485Z,2.67
2018-05-07T03:47:35.057Z,2.60
2018-05-07T03:50:02.549Z,2.30
2018-05-07T03:52:29.910Z,2.67
2018-05-07T03:54:57.258Z,3.10
2018-05-07T03:57:24.613Z,2.53
2018-05-07T03:59:51.953Z,2.90
2018-05-07T04:02:19.319Z,2.80
2018-05-07T04:04:46.673Z,2.80
2018-05-07T04:07:14.025Z,2.70
2018-05-07T04:09:41.409Z,2.90
2018-05-07T04:12:09.036Z,2.60
2018-05-07T04:14:36.871Z,3.00
2018-05-07T04:17:10.194Z,3.10
2018-05-07T04:19:43.501Z,2.30
2018-05-07T04:22:16.660Z,2.75
2018-05-07T04:24:44.576Z,2.92
2018-05-07T04:27:11.926Z,2.73
2018-05-07T04:29:39.475Z,2.80
2018-05-07T04:32:07.307Z,2.83
2018-05-07T04:34:34.718Z,2.70
2018-05-07T04:37:02.044Z,3.40
2018-05-07T04:39:29.406Z,3.07
2018-05-07T04:41:56.738Z,2.70
2018-05-07T04:44:24.112Z,2.60
2018-05-07T04:46:51.445Z,2.50
2018-05-07T04:49:18.819Z,2.77
2018-05-07T04:51:46.153Z,3.47
2018-05-07T04:54:13.517Z,4.20
2018-05-07T04:56:40.922Z,2.77
2018-05-07T04:59:08.921Z,3.20
2018-05-07T05:01:36.487Z,2.70
2018-05-07T05:04:03.969Z,3.03
2018-05-07T05:06:31.324Z,2.73
2018-05-07T05:08:58.653Z,3.00
2018-05-07T05:11:26.011Z,3.17
2018-05-07T05:13:53.356Z,3.03
2018-05-07T05:16:20.743Z,2.50
2018-05-07T05:18:48.081Z,3.00
2018-05-07T05:21:15.496Z,3.23
2018-05-07T05:23:42.794Z,2.60
2018-05-07T05:26:10.369Z,3.10
2018-05-07T05:28:38.206Z,3.80
2018-05-07T05:31:05.718Z,3.50
2018-05-07T05:33:33.055Z,2.73
2018-05-07T05:36:00.372Z,2.50
2018-05-07T05:38:27.734Z,2.70
2018-05-07T05:40:55.065Z,2.60
2018-05-07T05:43:22.430Z,3.50
2018-05-07T05:45:49.761Z,2.70
2018-05-07T05:48:17.121Z,3.70
2018-05-07T05:50:44.456Z,2.93
2018-05-07T05:53:11.921Z,2.90
2018-05-07T05:55:39.825Z,3.10
2018-05-07T05:58:07.344Z,3.27
2018-05-07T06:00:34.768Z,4.57
2018-05-07T06:03:02.138Z,2.80
2018-05-07T06:05:29.475Z,3.40
2018-05-07T06:07:56.802Z,3.27
2018-05-07T06:10:24.161Z,4.13
2018-05-07T06:12:51.510Z,3.50
2018-05-07T06:15:18.871Z,3.00
2018-05-07T06:17:46.200Z,3.70
2018-05-07T06:20:13.560Z,2.87
2018-05-07T06:22:41.145Z,3.27
2018-05-07T06:25:08.803Z,3.13
2018-05-07T06:27:36.282Z,3.17
2018-05-07T06:30:03.647Z,3.53
2018-05-07T06:32:30.973Z,2.70
2018-05-07T06:34:58.329Z,3.23
2018-05-07T06:37:25.691Z,3.23
2018-05-07T06:39:53.065Z,4.30
2018-05-07T06:42:20.408Z,6.67
2018-05-07T06:44:47.757Z,4.20
2018-05-07T06:47:15.154Z,3.03
2018-05-07T06:49:42.689Z,2.80
2018-05-07T06:52:10.666Z,3.00
2018-05-07T06:54:38.034Z,3.23
2018-05-07T06:57:05.547Z,3.13
2018-05-07T06:59:32.885Z,3.03
2018-05-07T07:02:00.316Z,3.53
2018-05-07T07:04:27.634Z,3.30
2018-05-07T07:06:55.005Z,11.20
2018-05-07T07:09:22.344Z,4.20
2018-05-07T07:11:49.713Z,3.50
2018-05-07T07:14:17.041Z,3.10
2018-05-07T07:16:44.419Z,2.33
2018-05-07T07:19:12.154Z,2.37
2018-05-07T07:21:39.809Z,2.80
2018-05-07T07:24:07.290Z,2.83
2018-05-07T07:26:34.670Z,2.73
2018-05-07T07:29:01.998Z,3.53
2018-05-07T07:31:29.362Z,3.07
2018-05-07T07:33:56.776Z,2.90
2018-05-07T07:36:24.097Z,2.80
2018-05-07T07:38:51.434Z,2.53
2018-05-07T07:44:01.493Z,2.63
2018-05-07T07:46:28.870Z,2.20
2018-05-07T07:48:56.209Z,2.70
2018-05-07T07:51:23.576Z,3.13
2018-05-07T07:53:50.960Z,2.80
2018-05-07T07:56:18.301Z,3.60
2018-05-07T07:58:45.639Z,2.33
2018-05-07T08:01:13.499Z,2.63
2018-05-07T08:03:41.333Z,3.57
2018-05-07T08:06:08.823Z,3.30
2018-05-07T08:08:36.193Z,1.90
2018-05-07T08:11:03.535Z,2.73
2018-05-07T08:13:30.897Z,2.40
2018-05-07T08:15:58.246Z,3.20
2018-05-07T08:18:25.647Z,2.40
2018-05-07T08:20:52.968Z,3.87
2018-05-07T08:23:20.317Z,3.17
2018-05-07T08:25:47.653Z,3.40
2018-05-07T08:28:15.134Z,3.00
2018-05-07T08:30:43.055Z,2.47
2018-05-07T08:33:10.616Z,2.50
2018-05-07T08:35:38.118Z,2.20
2018-05-07T08:38:05.475Z,2.70
2018-05-07T08:40:32.823Z,10.90
2018-05-07T08:43:00.197Z,17.90
2018-05-07T08:45:27.543Z,3.00
2018-05-07T08:47:54.922Z,3.00
2018-05-07T08:50:22.343Z,3.23
2018-05-07T08:52:49.710Z,2.13
2018-05-07T08:55:17.006Z,2.30
2018-05-07T08:57:44.715Z,2.43
2018-05-07T09:00:12.548Z,2.47
2018-05-07T09:02:40.050Z,2.30
2018-05-07T09:05:07.377Z,2.00
2018-05-07T09:07:34.729Z,2.80
2018-05-07T09:10:02.248Z,2.80
2018-05-07T09:12:29.585Z,2.67
2018-05-07T09:14:56.945Z,2.90
2018-05-07T09:17:24.281Z,1.80
2018-05-07T09:19:51.638Z,2.30
2018-05-07T09:22:18.974Z,2.70
2018-05-07T09:24:46.387Z,2.50
2018-05-07T09:27:13.709Z,2.73
2018-05-07T09:29:41.058Z,3.70
2018-05-07T09:32:08.430Z,2.40
2018-05-07T09:34:35.888Z,2.20
2018-05-07T09:37:03.255Z,2.20
2018-05-07T09:39:30.601Z,2.93
2018-05-07T09:41:57.963Z,2.50
2018-05-07T09:44:25.298Z,2.53
2018-05-07T09:46:52.659Z,2.37
2018-05-07T09:49:19.985Z,2.27
2018-05-07T09:51:47.347Z,2.07
2018-05-07T09:54:14.681Z,1.90
2018-05-07T09:56:47.987Z,2.00
2018-05-07T09:59:15.306Z,2.40
2018-05-07T10:01:42.667Z,2.30
2018-05-07T10:04:10.043Z,2.20
2018-05-07T10:06:37.455Z,2.33
2018-05-07T10:09:04.823Z,2.43
2018-05-07T10:11:32.187Z,2.00
2018-05-07T10:13:59.509Z,2.40
2018-05-07T10:16:26.871Z,2.17
2018-05-07T10:18:54.196Z,2.20
2018-05-07T10:21:21.567Z,1.97
2018-05-07T10:23:48.915Z,1.70
2018-05-07T10:26:16.285Z,1.93
2018-05-07T10:28:43.632Z,1.80
2018-05-07T10:31:11.042Z,2.20
2018-05-07T10:33:38.388Z,1.83
2018-05-07T10:36:05.759Z,2.20
2018-05-07T10:38:33.090Z,2.10
2018-05-07T10:41:00.446Z,3.13
2018-05-07T10:43:27.778Z,2.00
2018-05-07T10:45:55.137Z,2.00
2018-05-07T10:48:22.469Z,2.00
2018-05-07T10:50:49.821Z,2.90
2018-05-07T10:53:17.160Z,5.20
2018-05-07T10:55:44.526Z,3.07
2018-05-07T10:58:11.910Z,2.13
2018-05-07T11:00:39.261Z,2.43
2018-05-07T11:03:06.633Z,2.73
2018-05-07T11:05:33.965Z,2.10
2018-05-07T11:08:01.324Z,2.33
2018-05-07T11:10:28.653Z,2.70
2018-05-07T11:12:56.009Z,2.43
2018-05-07T11:15:23.340Z,2.47
2018-05-07T11:17:50.697Z,2.17
2018-05-07T11:20:18.033Z,1.93
2018-05-07T11:22:45.393Z,1.93
2018-05-07T11:25:12.729Z,2.10
2018-05-07T11:27:40.104Z,2.53
2018-05-07T11:30:07.441Z,2.10
2018-05-07T11:32:34.893Z,2.37
2018-05-07T11:35:02.257Z,2.43
2018-05-07T11:37:29.617Z,2.17
2018-05-07T11:39:56.959Z,2.83
2018-05-07T11:42:24.330Z,9.50
2018-05-07T11:44:51.658Z,2.40
2018-05-07T11:47:19.033Z,1.60
2018-05-07T11:49:46.370Z,2.30
2018-05-07T11:52:13.708Z,2.10
2018-05-07T11:54:41.086Z,2.20
2018-05-07T11:57:08.510Z,2.00
2018-05-07T11:59:35.868Z,2.10
2018-05-07T12:02:03.201Z,1.90
2018-05-07T12:04:30.589Z,2.30
2018-05-07T12:06:57.917Z,1.63
2018-05-07T12:09:25.272Z,1.97
2018-05-07T12:11:52.608Z,2.10
2018-05-07T12:14:19.962Z,2.13
2018-05-07T12:16:47.302Z,1.80
2018-05-07T12:19:14.668Z,1.63
2018-05-07T12:21:42.093Z,1.53
2018-05-07T12:24:09.500Z,1.63
2018-05-07T12:26:36.983Z,1.90
2018-05-07T12:29:04.314Z,1.40
2018-05-07T12:31:31.752Z,1.90
2018-05-07T12:33:59.062Z,1.60
2018-05-07T12:36:26.426Z,1.90
2018-05-07T12:38:53.765Z,1.60
2018-05-07T12:41:21.152Z,1.80
2018-05-07T12:43:48.488Z,1.30
2018-05-07T12:46:15.854Z,2.07
2018-05-07T12:48:43.190Z,2.00
2018-05-07T12:51:10.617Z,1.90
2018-05-07T12:53:37.953Z,2.07
2018-05-07T12:56:05.309Z,1.47
2018-05-07T12:58:32.645Z,2.13
2018-05-07T13:01:00.012Z,1.97
2018-05-07T13:03:27.370Z,1.60
2018-05-07T13:05:54.763Z,1.60
2018-05-07T13:08:22.090Z,2.00
2018-05-07T13:10:49.453Z,2.00
2018-05-07T13:13:16.792Z,1.70
2018-05-07T13:15:44.255Z,2.17
2018-05-07T13:18:11.679Z,1.80
2018-05-07T13:20:39.029Z,2.00
2018-05-07T13:23:06.399Z,1.83
2018-05-07T13:25:33.760Z,1.73
2018-05-07T13:28:01.125Z,2.00
2018-05-07T13:30:28.466Z,1.90
2018-05-07T13:32:55.836Z,1.70
2018-05-07T13:35:23.168Z,1.90
2018-05-07T13:37:50.522Z,1.97
2018-05-07T13:40:17.850Z,2.77
2018-05-07T13:42:45.206Z,3.70
2018-05-07T13:45:12.573Z,1.80
2018-05-07T13:47:39.924Z,1.63
2018-05-07T13:50:07.260Z,1.67
2018-05-07T13:52:34.620Z,1.80
2018-05-07T13:55:01.952Z,1.77
2018-05-07T13:57:29.332Z,2.20
2018-05-07T13:59:56.666Z,1.60
2018-05-07T14:02:24.018Z,1.80
2018-05-07T14:04:51.393Z,1.63
2018-05-07T14:07:18.746Z,1.70
2018-05-07T14:09:46.071Z,1.40
2018-05-07T14:12:13.422Z,1.63
2018-05-07T14:14:40.785Z,1.33
2018-05-07T14:17:08.198Z,2.27
2018-05-07T14:19:35.554Z,1.30
2018-05-07T14:22:02.886Z,1.60
2018-05-07T14:24:30.242Z,1.70
2018-05-07T14:26:57.590Z,1.50
2018-05-07T14:29:25.009Z,2.27
2018-05-07T14:31:52.358Z,1.70
2018-05-07T14:34:19.722Z,2.03
2018-05-07T14:36:47.079Z,1.60
2018-05-07T14:39:14.465Z,1.63
2018-05-07T14:41:41.894Z,1.57
2018-05-07T14:44:09.265Z,2.43
2018-05-07T14:46:36.593Z,1.97
2018-05-07T14:49:03.970Z,1.40
2018-05-07T14:51:31.360Z,1.90
2018-05-07T14:53:58.718Z,1.60
2018-05-07T14:56:26.067Z,2.47
2018-05-07T14:58:53.434Z,2.27
2018-05-07T15:01:20.777Z,1.60
2018-05-07T15:03:48.138Z,1.60
2018-05-07T15:06:15.498Z,2.00
2018-05-07T15:08:42.875Z,1.90
2018-05-07T15:11:10.236Z,1.87
2018-05-07T15:13:37.569Z,2.27
2018-05-07T15:16:04.934Z,2.33
2018-05-07T15:18:32.266Z,1.50
2018-05-07T15:20:59.624Z,3.00
2018-05-07T15:23:27.055Z,1.70
2018-05-07T15:25:54.366Z,1.40
2018-05-07T15:28:21.694Z,1.77
2018-05-07T15:30:49.049Z,1.20
2018-05-07T15:33:16.391Z,1.47
2018-05-07T15:35:43.917Z,1.67
2018-05-07T15:38:11.254Z,2.03
2018-05-07T15:40:38.630Z,1.77
2018-05-07T15:43:05.962Z,1.90
2018-05-07T15:45:33.343Z,1.80
2018-05-07T15:48:00.690Z,2.33
2018-05-07T15:50:28.016Z,5.03
2018-05-07T15:52:55.487Z,6.80
2018-05-07T15:55:22.825Z,2.93
2018-05-07T15:57:50.198Z,1.63
2018-05-07T16:00:17.667Z,1.60
2018-05-07T16:02:45.136Z,2.10
2018-05-07T16:05:12.474Z,1.70
2018-05-07T16:07:39.841Z,1.70
2018-05-07T16:10:07.176Z,2.30
2018-05-07T16:12:34.542Z,1.90
2018-05-07T16:15:01.966Z,2.03
2018-05-07T16:17:29.253Z,1.87
2018-05-07T16:19:56.589Z,1.80
2018-05-07T16:22:23.949Z,4.30
2018-05-07T16:24:51.283Z,2.63
2018-05-07T16:27:18.685Z,2.63
2018-05-07T16:29:46.023Z,1.60
2018-05-07T16:32:13.386Z,1.73
2018-05-07T16:34:40.719Z,1.80
2018-05-07T16:37:08.078Z,1.80
2018-05-07T16:39:35.414Z,1.73
2018-05-07T16:42:02.783Z,2.17
2018-05-07T16:44:30.137Z,2.03
2018-05-07T16:46:57.506Z,1.73
2018-05-07T16:49:24.844Z,1.80
2018-05-07T16:51:52.175Z,1.50
2018-05-07T16:54:19.615Z,2.10
2018-05-07T16:56:46.918Z,1.90
2018-05-07T16:59:14.279Z,2.65
2018-05-07T17:01:41.749Z,2.37
2018-05-07T17:04:09.110Z,1.60
2018-05-07T17:06:36.483Z,2.23
2018-05-07T17:09:03.869Z,2.00
2018-05-07T17:11:31.200Z,1.67
2018-05-07T17:13:58.566Z,1.93
2018-05-07T17:16:25.893Z,1.70
2018-05-07T17:18:53.267Z,2.10
2018-05-07T17:21:20.604Z,2.27
2018-05-07T17:23:48.355Z,1.70
2018-05-07T17:26:15.785Z,1.63
2018-05-07T17:28:43.402Z,1.70
2018-05-07T17:31:10.733Z,1.93
2018-05-07T17:33:38.218Z,2.13
2018-05-07T17:36:05.471Z,1.83
2018-05-07T17:38:32.855Z,3.53
2018-05-07T17:41:00.181Z,1.90
2018-05-07T17:43:27.539Z,2.33
2018-05-07T17:46:00.835Z,2.07
2018-05-07T17:48:34.020Z,2.13
2018-05-07T17:51:01.354Z,1.90
2018-05-07T17:53:28.723Z,2.23
2018-05-07T17:55:56.059Z,1.90
2018-05-07T17:58:23.418Z,2.10
2018-05-07T18:00:50.959Z,2.77
2018-05-07T18:03:18.906Z,2.20
2018-05-07T18:05:46.463Z,3.10
2018-05-07T18:08:13.961Z,4.00
2018-05-07T18:10:41.339Z,3.23
2018-05-07T18:13:08.675Z,1.80
2018-05-07T18:15:36.035Z,2.13
2018-05-07T18:18:03.376Z,1.80
2018-05-07T18:20:30.737Z,2.33
2018-05-07T18:22:58.084Z,3.03
2018-05-07T18:25:25.450Z,2.00
2018-05-07T18:27:52.794Z,1.93
2018-05-07T18:30:20.461Z,2.07
2018-05-07T18:32:48.293Z,2.10
2018-05-07T18:35:15.812Z,2.30
2018-05-07T18:37:43.157Z,2.77
2018-05-07T18:40:10.534Z,2.10
2018-05-07T18:42:37.872Z,1.93
2018-05-07T18:45:05.236Z,2.70
2018-05-07T18:47:32.585Z,2.17
2018-05-07T18:49:59.951Z,1.80
2018-05-07T18:52:27.289Z,2.27
2018-05-07T18:54:54.647Z,2.40
2018-05-07T18:57:21.990Z,2.13
2018-05-07T18:59:49.891Z,2.77
2018-05-07T19:02:17.301Z,2.90
2018-05-07T19:04:44.795Z,3.63
2018-05-07T19:07:12.237Z,2.90
2018-05-07T19:09:39.541Z,3.30
2018-05-07T19:12:06.891Z,2.33
2018-05-07T19:14:34.249Z,2.20
2018-05-07T19:17:01.609Z,2.90
2018-05-07T19:19:28.937Z,2.90
2018-05-07T19:21:56.303Z,2.27
2018-05-07T19:24:23.635Z,2.20
2018-05-07T19:26:51.436Z,2.10
2018-05-07T19:29:19.099Z,2.47
2018-05-07T19:31:46.614Z,2.67
2018-05-07T19:34:13.952Z,2.30
2018-05-07T19:36:41.325Z,2.77
2018-05-07T19:39:08.662Z,2.40
2018-05-07T19:41:36.017Z,5.20
2018-05-07T19:44:03.365Z,5.83
2018-05-07T19:46:30.732Z,2.77
2018-05-07T19:48:58.053Z,2.80
2018-05-07T19:51:25.411Z,2.60
2018-05-07T19:53:53.033Z,4.03
2018-05-07T19:56:22.363Z,3.03
2018-05-07T19:58:50.123Z,3.37
2018-05-07T20:01:17.644Z,2.93
2018-05-07T20:03:45.024Z,3.43
2018-05-07T20:06:12.390Z,3.10
2018-05-07T20:08:39.771Z,2.50
2018-05-07T20:11:07.151Z,2.80
2018-05-07T20:13:34.491Z,3.57
2018-05-07T20:16:02.619Z,3.87
2018-05-07T20:18:30.020Z,4.03
2018-05-07T20:20:57.469Z,3.60
2018-05-07T20:23:24.805Z,3.63
2018-05-07T20:25:52.699Z,4.20
2018-05-07T20:28:20.140Z,3.97
2018-05-07T20:30:47.633Z,3.57
2018-05-07T20:33:15.096Z,4.20
2018-05-07T20:35:42.452Z,3.40
2018-05-07T20:38:09.815Z,3.90
2018-05-07T20:40:37.143Z,4.27
2018-05-07T20:43:04.519Z,4.60
2018-05-07T20:45:31.857Z,4.20
2018-05-07T20:47:59.299Z,3.97
2018-05-07T20:50:26.757Z,3.57
2018-05-07T20:52:54.382Z,4.10
2018-05-07T20:55:22.309Z,4.30
2018-05-07T20:57:49.787Z,4.13
2018-05-07T21:00:17.122Z,3.90
2018-05-07T21:02:44.484Z,4.13
2018-05-07T21:05:11.822Z,4.13
2018-05-07T21:07:39.180Z,3.97
2018-05-07T21:10:06.539Z,4.53
2018-05-07T21:12:33.896Z,4.37
2018-05-07T21:15:01.229Z,4.40
2018-05-07T21:17:28.604Z,4.10
2018-05-07T21:19:55.950Z,4.47
2018-05-07T21:22:23.884Z,4.70
2018-05-07T21:24:51.349Z,4.90
2018-05-07T21:27:18.866Z,4.00
2018-05-07T21:29:46.201Z,5.00
2018-05-07T21:32:13.529Z,4.80
2018-05-07T21:34:40.879Z,4.30
2018-05-07T21:37:08.345Z,4.17
2018-05-07T21:39:35.705Z,5.00
2018-05-07T21:42:03.037Z,4.77
2018-05-07T21:44:30.405Z,3.70
2018-05-07T21:46:57.741Z,4.93
2018-05-07T21:49:25.537Z,4.60
2018-05-07T21:51:53.375Z,4.40
2018-05-07T21:54:20.836Z,4.40
2018-05-07T21:56:48.174Z,4.80
2018-05-07T21:59:15.544Z,5.13
2018-05-07T22:01:42.874Z,5.23
2018-05-07T22:04:10.232Z,4.40
2018-05-07T22:06:37.566Z,4.30
2018-05-07T22:09:04.942Z,4.40
2018-05-07T22:11:32.288Z,4.33
2018-05-07T22:13:59.653Z,4.80
2018-05-07T22:16:27.137Z,4.37
2018-05-07T22:18:55.099Z,4.50
2018-05-07T22:21:22.657Z,4.83
2018-05-07T22:23:50.143Z,4.97
2018-05-07T22:26:17.570Z,4.50
2018-05-07T22:28:44.876Z,4.00
2018-05-07T22:31:12.233Z,4.60
2018-05-07T22:33:39.557Z,4.27
2018-05-07T22:36:06.920Z,3.50
2018-05-07T22:38:34.254Z,4.43
2018-05-07T22:41:01.623Z,5.10
2018-05-07T22:43:28.957Z,5.03
2018-05-07T22:45:56.753Z,5.30
2018-05-07T22:48:24.798Z,4.13
2018-05-07T22:50:52.214Z,5.03
2018-05-07T22:53:19.547Z,4.50
2018-05-07T22:55:46.935Z,5.43
2018-05-07T22:58:14.265Z,4.33
2018-05-07T23:00:41.628Z,4.40
2018-05-07T23:03:08.976Z,4.60
2018-05-07T23:05:36.349Z,4.50
2018-05-07T23:08:03.734Z,3.90
2018-05-07T23:10:31.090Z,5.40
2018-05-07T23:12:58.546Z,5.00
2018-05-07T23:15:26.477Z,4.47
2018-05-07T23:17:53.975Z,4.20
2018-05-07T23:20:21.469Z,4.60
2018-05-07T23:22:48.827Z,4.50
2018-05-07T23:25:16.162Z,5.20
2018-05-07T23:27:43.522Z,4.20
2018-05-07T23:30:10.880Z,4.87
2018-05-07T23:32:41.213Z,5.33
2018-05-07T23:35:08.564Z,4.47
2018-05-07T23:37:35.899Z,5.00
2018-05-07T23:40:03.262Z,5.07
2018-05-07T23:42:30.617Z,4.57
2018-05-07T23:44:58.182Z,4.83
2018-05-07T23:47:26.017Z,3.80
2018-05-07T23:49:53.535Z,4.10
2018-05-07T23:52:20.865Z,4.63
2018-05-07T23:54:48.216Z,4.47
2018-05-07T23:57:15.554Z,4.73
2018-05-07T23:59:42.909Z,4.67
